sensor_id;sensor_type;location;lat;lon;timestamp;temperature;humidity
25963;DHT22;13760;52.588;13.406;2023-07-13T00:00:02;18.40;99.90
25963;DHT22;13760;52.588;13.406;2023-07-13T00:02:29;18.40;99.90
25963;DHT22;13760;52.588;13.406;2023-07-13T00:04:55;18.40;99.90
25963;DHT22;13760;52.588;13.406;2023-07-13T00:07:20;18.50;99.90
25963;DHT22;13760;52.588;13.406;2023-07-13T00:09:46;18.40;99.90
25963;DHT22;13760;52.588;13.406;2023-07-13T00:12:27;18.50;99.90
25963;DHT22;13760;52.588;13.406;2023-07-13T00:14:56;18.50;99.90
25963;DHT22;13760;52.588;13.406;2023-07-13T00:17:22;18.50;99.90
25963;DHT22;13760;52.588;13.406;2023-07-13T00:19:47;18.40;99.90
25963;DHT22;13760;52.588;13.406;2023-07-13T00:22:13;18.40;99.90
25963;DHT22;13760;52.588;13.406;2023-07-13T00:24:39;18.40;99.90
25963;DHT22;13760;52.588;13.406;2023-07-13T00:27:08;18.40;99.90
25963;DHT22;13760;52.588;13.406;2023-07-13T00:29:35;18.40;99.90
25963;DHT22;13760;52.588;13.406;2023-07-13T00:32:01;18.30;99.90
25963;DHT22;13760;52.588;13.406;2023-07-13T00:34:26;18.30;99.90
25963;DHT22;13760;52.588;13.406;2023-07-13T00:36:52;18.30;99.90
25963;DHT22;13760;52.588;13.406;2023-07-13T00:39:18;18.30;99.90
25963;DHT22;13760;52.588;13.406;2023-07-13T00:41:43;18.20;99.90
25963;DHT22;13760;52.588;13.406;2023-07-13T00:44:14;18.20;99.90
25963;DHT22;13760;52.588;13.406;2023-07-13T00:46:39;18.10;99.90
25963;DHT22;13760;52.588;13.406;2023-07-13T00:49:07;18.10;99.90
25963;DHT22;13760;52.588;13.406;2023-07-13T00:51:40;18.00;99.90
25963;DHT22;13760;52.588;13.406;2023-07-13T00:54:10;18.00;99.90
25963;DHT22;13760;52.588;13.406;2023-07-13T00:56:38;18.00;99.90
25963;DHT22;13760;52.588;13.406;2023-07-13T00:59:06;17.90;99.90
25963;DHT22;13760;52.588;13.406;2023-07-13T01:01:31;17.90;99.90
25963;DHT22;13760;52.588;13.406;2023-07-13T01:03:57;17.90;99.90
25963;DHT22;13760;52.588;13.406;2023-07-13T01:06:23;17.90;99.90
25963;DHT22;13760;52.588;13.406;2023-07-13T01:08:51;17.90;99.90
25963;DHT22;13760;52.588;13.406;2023-07-13T01:11:21;17.80;99.90
25963;DHT22;13760;52.588;13.406;2023-07-13T01:13:50;17.70;99.90
25963;DHT22;13760;52.588;13.406;2023-07-13T01:16:27;17.70;99.90
25963;DHT22;13760;52.588;13.406;2023-07-13T01:18:53;17.60;99.90
25963;DHT22;13760;52.588;13.406;2023-07-13T01:21:19;17.60;99.90
25963;DHT22;13760;52.588;13.406;2023-07-13T01:23:45;17.60;99.90
25963;DHT22;13760;52.588;13.406;2023-07-13T01:26:11;17.50;99.90
25963;DHT22;13760;52.588;13.406;2023-07-13T01:28:37;17.40;99.90
25963;DHT22;13760;52.588;13.406;2023-07-13T01:31:03;17.40;99.90
25963;DHT22;13760;52.588;13.406;2023-07-13T01:33:29;17.30;99.90
25963;DHT22;13760;52.588;13.406;2023-07-13T01:35:55;17.30;99.90
25963;DHT22;13760;52.588;13.406;2023-07-13T01:38:23;17.20;99.90
25963;DHT22;13760;52.588;13.406;2023-07-13T01:40:49;17.20;99.90
25963;DHT22;13760;52.588;13.406;2023-07-13T01:43:15;17.20;99.90
25963;DHT22;13760;52.588;13.406;2023-07-13T01:45:41;17.20;99.90
25963;DHT22;13760;52.588;13.406;2023-07-13T01:48:09;17.20;99.90
25963;DHT22;13760;52.588;13.406;2023-07-13T01:50:35;17.10;99.90
25963;DHT22;13760;52.588;13.406;2023-07-13T01:53:03;17.10;99.90
25963;DHT22;13760;52.588;13.406;2023-07-13T01:55:29;17.10;99.90
25963;DHT22;13760;52.588;13.406;2023-07-13T01:57:56;17.10;99.90
25963;DHT22;13760;52.588;13.406;2023-07-13T02:00:22;17.10;99.90
25963;DHT22;13760;52.588;13.406;2023-07-13T02:02:48;17.00;99.90
25963;DHT22;13760;52.588;13.406;2023-07-13T02:05:14;17.00;99.90
25963;DHT22;13760;52.588;13.406;2023-07-13T02:07:40;16.90;99.90
25963;DHT22;13760;52.588;13.406;2023-07-13T02:10:08;16.80;99.90
25963;DHT22;13760;52.588;13.406;2023-07-13T02:12:34;16.90;99.90
25963;DHT22;13760;52.588;13.406;2023-07-13T02:15:00;16.90;99.90
25963;DHT22;13760;52.588;13.406;2023-07-13T02:17:26;16.80;99.90
25963;DHT22;13760;52.588;13.406;2023-07-13T02:19:52;16.80;99.90
25963;DHT22;13760;52.588;13.406;2023-07-13T02:22:18;16.80;99.90
25963;DHT22;13760;52.588;13.406;2023-07-13T02:24:43;16.90;99.90
25963;DHT22;13760;52.588;13.406;2023-07-13T02:27:09;16.90;99.90
25963;DHT22;13760;52.588;13.406;2023-07-13T02:29:34;16.80;99.90
25963;DHT22;13760;52.588;13.406;2023-07-13T02:32:00;16.80;99.90
25963;DHT22;13760;52.588;13.406;2023-07-13T02:34:26;16.80;99.90
25963;DHT22;13760;52.588;13.406;2023-07-13T02:36:51;16.80;99.90
25963;DHT22;13760;52.588;13.406;2023-07-13T02:39:18;16.80;99.90
25963;DHT22;13760;52.588;13.406;2023-07-13T02:41:44;16.80;99.90
25963;DHT22;13760;52.588;13.406;2023-07-13T02:44:09;16.80;99.90
25963;DHT22;13760;52.588;13.406;2023-07-13T02:46:37;16.80;99.90
25963;DHT22;13760;52.588;13.406;2023-07-13T02:49:03;16.80;99.90
25963;DHT22;13760;52.588;13.406;2023-07-13T02:51:29;16.70;99.90
25963;DHT22;13760;52.588;13.406;2023-07-13T02:53:55;16.80;99.90
25963;DHT22;13760;52.588;13.406;2023-07-13T02:56:26;16.70;99.90
25963;DHT22;13760;52.588;13.406;2023-07-13T02:58:53;16.70;99.90
25963;DHT22;13760;52.588;13.406;2023-07-13T03:01:19;16.70;99.90
25963;DHT22;13760;52.588;13.406;2023-07-13T03:03:47;16.70;99.90
25963;DHT22;13760;52.588;13.406;2023-07-13T03:06:13;16.70;99.90
25963;DHT22;13760;52.588;13.406;2023-07-13T03:08:39;16.70;99.90
25963;DHT22;13760;52.588;13.406;2023-07-13T03:11:08;16.70;99.90
25963;DHT22;13760;52.588;13.406;2023-07-13T03:13:34;16.70;99.90
25963;DHT22;13760;52.588;13.406;2023-07-13T03:16:00;16.70;99.90
25963;DHT22;13760;52.588;13.406;2023-07-13T03:18:27;16.70;99.90
25963;DHT22;13760;52.588;13.406;2023-07-13T03:20:53;16.70;99.90
25963;DHT22;13760;52.588;13.406;2023-07-13T03:23:20;16.60;99.90
25963;DHT22;13760;52.588;13.406;2023-07-13T03:25:46;16.60;99.90
25963;DHT22;13760;52.588;13.406;2023-07-13T03:28:12;16.60;99.90
25963;DHT22;13760;52.588;13.406;2023-07-13T03:30:38;16.50;99.90
25963;DHT22;13760;52.588;13.406;2023-07-13T03:33:04;16.50;99.90
25963;DHT22;13760;52.588;13.406;2023-07-13T03:35:30;16.50;99.90
25963;DHT22;13760;52.588;13.406;2023-07-13T03:37:55;16.50;99.90
25963;DHT22;13760;52.588;13.406;2023-07-13T03:40:22;16.50;99.90
25963;DHT22;13760;52.588;13.406;2023-07-13T03:42:47;16.60;99.90
25963;DHT22;13760;52.588;13.406;2023-07-13T03:45:13;16.60;99.90
25963;DHT22;13760;52.588;13.406;2023-07-13T03:47:38;16.70;99.90
25963;DHT22;13760;52.588;13.406;2023-07-13T03:50:05;16.70;99.90
25963;DHT22;13760;52.588;13.406;2023-07-13T03:52:30;16.80;99.90
25963;DHT22;13760;52.588;13.406;2023-07-13T03:54:56;16.80;99.90
25963;DHT22;13760;52.588;13.406;2023-07-13T03:57:22;16.90;99.90
25963;DHT22;13760;52.588;13.406;2023-07-13T03:59:48;16.90;99.90
25963;DHT22;13760;52.588;13.406;2023-07-13T04:02:23;16.90;99.90
25963;DHT22;13760;52.588;13.406;2023-07-13T04:04:48;17.00;99.90
25963;DHT22;13760;52.588;13.406;2023-07-13T04:07:14;17.00;99.90
25963;DHT22;13760;52.588;13.406;2023-07-13T04:09:40;17.10;99.90
25963;DHT22;13760;52.588;13.406;2023-07-13T04:12:06;17.10;99.90
25963;DHT22;13760;52.588;13.406;2023-07-13T04:14:31;17.10;99.90
25963;DHT22;13760;52.588;13.406;2023-07-13T04:16:57;17.20;99.90
25963;DHT22;13760;52.588;13.406;2023-07-13T04:19:23;17.20;99.90
25963;DHT22;13760;52.588;13.406;2023-07-13T04:21:49;17.30;99.90
25963;DHT22;13760;52.588;13.406;2023-07-13T04:24:14;17.30;99.90
25963;DHT22;13760;52.588;13.406;2023-07-13T04:26:40;17.30;99.90
25963;DHT22;13760;52.588;13.406;2023-07-13T04:29:06;17.40;99.90
25963;DHT22;13760;52.588;13.406;2023-07-13T04:31:32;17.40;99.90
25963;DHT22;13760;52.588;13.406;2023-07-13T04:33:58;17.50;99.90
25963;DHT22;13760;52.588;13.406;2023-07-13T04:36:24;17.50;99.90
25963;DHT22;13760;52.588;13.406;2023-07-13T04:38:52;17.60;99.90
25963;DHT22;13760;52.588;13.406;2023-07-13T04:41:19;17.60;99.90
25963;DHT22;13760;52.588;13.406;2023-07-13T04:43:45;17.70;99.90
25963;DHT22;13760;52.588;13.406;2023-07-13T04:46:12;17.80;99.90
25963;DHT22;13760;52.588;13.406;2023-07-13T04:48:39;17.80;99.90
25963;DHT22;13760;52.588;13.406;2023-07-13T04:51:05;17.80;99.90
25963;DHT22;13760;52.588;13.406;2023-07-13T04:53:31;17.80;99.90
25963;DHT22;13760;52.588;13.406;2023-07-13T04:55:58;17.90;99.90
25963;DHT22;13760;52.588;13.406;2023-07-13T04:58:24;17.90;99.90
25963;DHT22;13760;52.588;13.406;2023-07-13T05:00:50;18.00;99.90
25963;DHT22;13760;52.588;13.406;2023-07-13T05:03:16;18.00;99.90
25963;DHT22;13760;52.588;13.406;2023-07-13T05:05:41;18.00;99.90
25963;DHT22;13760;52.588;13.406;2023-07-13T05:08:07;18.10;99.90
25963;DHT22;13760;52.588;13.406;2023-07-13T05:10:34;18.10;99.90
25963;DHT22;13760;52.588;13.406;2023-07-13T05:13:00;18.10;99.90
25963;DHT22;13760;52.588;13.406;2023-07-13T05:15:26;18.20;99.90
25963;DHT22;13760;52.588;13.406;2023-07-13T05:17:52;18.20;99.90
25963;DHT22;13760;52.588;13.406;2023-07-13T05:20:21;18.20;99.90
25963;DHT22;13760;52.588;13.406;2023-07-13T05:22:47;18.30;99.90
25963;DHT22;13760;52.588;13.406;2023-07-13T05:25:13;18.30;99.90
25963;DHT22;13760;52.588;13.406;2023-07-13T05:27:39;18.40;99.90
25963;DHT22;13760;52.588;13.406;2023-07-13T05:30:05;18.40;99.90
25963;DHT22;13760;52.588;13.406;2023-07-13T05:32:49;18.40;99.90
25963;DHT22;13760;52.588;13.406;2023-07-13T05:35:38;18.50;99.90
25963;DHT22;13760;52.588;13.406;2023-07-13T05:38:10;18.60;99.90
25963;DHT22;13760;52.588;13.406;2023-07-13T05:40:36;18.70;99.90
25963;DHT22;13760;52.588;13.406;2023-07-13T05:43:02;18.70;99.90
25963;DHT22;13760;52.588;13.406;2023-07-13T05:45:28;18.70;99.90
25963;DHT22;13760;52.588;13.406;2023-07-13T05:47:54;18.80;99.90
25963;DHT22;13760;52.588;13.406;2023-07-13T05:50:19;18.80;99.90
25963;DHT22;13760;52.588;13.406;2023-07-13T05:52:45;18.90;99.90
25963;DHT22;13760;52.588;13.406;2023-07-13T05:55:10;19.00;99.90
25963;DHT22;13760;52.588;13.406;2023-07-13T05:57:36;19.10;99.90
25963;DHT22;13760;52.588;13.406;2023-07-13T06:00:02;19.10;99.90
25963;DHT22;13760;52.588;13.406;2023-07-13T06:02:28;19.20;99.90
25963;DHT22;13760;52.588;13.406;2023-07-13T06:04:54;19.30;99.90
25963;DHT22;13760;52.588;13.406;2023-07-13T06:07:19;19.40;99.90
25963;DHT22;13760;52.588;13.406;2023-07-13T06:09:45;19.60;99.90
25963;DHT22;13760;52.588;13.406;2023-07-13T06:12:10;19.70;99.90
25963;DHT22;13760;52.588;13.406;2023-07-13T06:14:36;19.80;99.90
25963;DHT22;13760;52.588;13.406;2023-07-13T06:17:02;20.00;99.90
25963;DHT22;13760;52.588;13.406;2023-07-13T06:19:28;20.10;99.90
25963;DHT22;13760;52.588;13.406;2023-07-13T06:21:54;20.10;99.90
25963;DHT22;13760;52.588;13.406;2023-07-13T06:24:19;20.20;99.90
25963;DHT22;13760;52.588;13.406;2023-07-13T06:26:45;20.20;99.90
25963;DHT22;13760;52.588;13.406;2023-07-13T06:29:11;20.20;99.90
25963;DHT22;13760;52.588;13.406;2023-07-13T06:31:36;20.20;99.90
25963;DHT22;13760;52.588;13.406;2023-07-13T06:34:11;20.20;99.90
25963;DHT22;13760;52.588;13.406;2023-07-13T06:36:36;20.20;99.90
25963;DHT22;13760;52.588;13.406;2023-07-13T06:39:06;20.30;99.90
25963;DHT22;13760;52.588;13.406;2023-07-13T06:41:32;20.40;99.90
25963;DHT22;13760;52.588;13.406;2023-07-13T06:43:58;20.40;99.90
25963;DHT22;13760;52.588;13.406;2023-07-13T06:46:24;20.50;99.90
25963;DHT22;13760;52.588;13.406;2023-07-13T06:48:49;20.60;99.90
25963;DHT22;13760;52.588;13.406;2023-07-13T06:51:15;20.70;99.90
25963;DHT22;13760;52.588;13.406;2023-07-13T06:57:00;21.00;99.90
25963;DHT22;13760;52.588;13.406;2023-07-13T06:59:31;21.20;99.90
25963;DHT22;13760;52.588;13.406;2023-07-13T07:01:57;21.30;99.90
25963;DHT22;13760;52.588;13.406;2023-07-13T07:04:25;21.60;99.90
25963;DHT22;13760;52.588;13.406;2023-07-13T07:06:54;21.70;99.90
25963;DHT22;13760;52.588;13.406;2023-07-13T07:09:20;21.90;99.90
25963;DHT22;13760;52.588;13.406;2023-07-13T07:11:45;22.20;99.90
25963;DHT22;13760;52.588;13.406;2023-07-13T07:14:11;22.40;99.90
25963;DHT22;13760;52.588;13.406;2023-07-13T07:16:37;22.60;99.90
25963;DHT22;13760;52.588;13.406;2023-07-13T07:19:02;22.90;99.90
25963;DHT22;13760;52.588;13.406;2023-07-13T07:21:28;23.10;99.90
25963;DHT22;13760;52.588;13.406;2023-07-13T07:23:53;23.30;99.90
25963;DHT22;13760;52.588;13.406;2023-07-13T07:26:19;23.40;99.90
25963;DHT22;13760;52.588;13.406;2023-07-13T07:28:52;23.50;99.90
25963;DHT22;13760;52.588;13.406;2023-07-13T07:31:17;23.60;99.90
25963;DHT22;13760;52.588;13.406;2023-07-13T07:33:43;23.80;99.90
25963;DHT22;13760;52.588;13.406;2023-07-13T07:36:08;23.80;99.90
25963;DHT22;13760;52.588;13.406;2023-07-13T07:38:34;23.80;99.90
25963;DHT22;13760;52.588;13.406;2023-07-13T07:41:03;23.90;99.90
25963;DHT22;13760;52.588;13.406;2023-07-13T07:43:29;24.10;99.90
25963;DHT22;13760;52.588;13.406;2023-07-13T07:45:58;24.10;99.90
25963;DHT22;13760;52.588;13.406;2023-07-13T07:48:23;24.30;99.90
25963;DHT22;13760;52.588;13.406;2023-07-13T07:50:51;24.40;99.90
25963;DHT22;13760;52.588;13.406;2023-07-13T07:53:18;24.50;99.90
25963;DHT22;13760;52.588;13.406;2023-07-13T07:55:44;24.40;99.90
25963;DHT22;13760;52.588;13.406;2023-07-13T07:58:10;24.30;99.90
25963;DHT22;13760;52.588;13.406;2023-07-13T08:00:36;24.30;99.90
25963;DHT22;13760;52.588;13.406;2023-07-13T08:03:04;24.10;99.90
25963;DHT22;13760;52.588;13.406;2023-07-13T08:05:29;24.20;99.90
25963;DHT22;13760;52.588;13.406;2023-07-13T08:07:55;24.40;99.50
25963;DHT22;13760;52.588;13.406;2023-07-13T08:10:21;24.50;98.80
25963;DHT22;13760;52.588;13.406;2023-07-13T08:12:47;24.40;98.50
25963;DHT22;13760;52.588;13.406;2023-07-13T08:15:15;24.50;99.00
25963;DHT22;13760;52.588;13.406;2023-07-13T08:17:49;24.60;99.40
25963;DHT22;13760;52.588;13.406;2023-07-13T08:20:15;24.60;98.80
25963;DHT22;13760;52.588;13.406;2023-07-13T08:22:44;24.60;98.30
25963;DHT22;13760;52.588;13.406;2023-07-13T08:25:13;24.50;98.40
25963;DHT22;13760;52.588;13.406;2023-07-13T08:27:39;24.70;99.40
25963;DHT22;13760;52.588;13.406;2023-07-13T08:30:05;24.70;98.40
25963;DHT22;13760;52.588;13.406;2023-07-13T08:32:40;24.50;98.40
25963;DHT22;13760;52.588;13.406;2023-07-13T08:35:06;24.50;99.70
25963;DHT22;13760;52.588;13.406;2023-07-13T08:37:35;24.40;99.80
25963;DHT22;13760;52.588;13.406;2023-07-13T08:40:00;24.50;98.90
25963;DHT22;13760;52.588;13.406;2023-07-13T08:42:37;24.40;98.90
25963;DHT22;13760;52.588;13.406;2023-07-13T08:47:44;24.30;97.80
25963;DHT22;13760;52.588;13.406;2023-07-13T08:50:13;24.30;97.80
25963;DHT22;13760;52.588;13.406;2023-07-13T08:52:41;24.30;97.80
25963;DHT22;13760;52.588;13.406;2023-07-13T08:55:24;24.30;97.80
25963;DHT22;13760;52.588;13.406;2023-07-13T08:58:05;24.30;96.80
25963;DHT22;13760;52.588;13.406;2023-07-13T09:00:52;24.30;95.60
25963;DHT22;13760;52.588;13.406;2023-07-13T09:03:23;24.30;95.40
25963;DHT22;13760;52.588;13.406;2023-07-13T09:05:57;24.20;95.70
25963;DHT22;13760;52.588;13.406;2023-07-13T09:08:50;24.30;96.40
25963;DHT22;13760;52.588;13.406;2023-07-13T09:11:36;24.60;95.40
25963;DHT22;13760;52.588;13.406;2023-07-13T09:16:48;25.20;95.10
25963;DHT22;13760;52.588;13.406;2023-07-13T09:19:29;25.40;94.00
25963;DHT22;13760;52.588;13.406;2023-07-13T09:21:56;25.30;92.20
25963;DHT22;13760;52.588;13.406;2023-07-13T09:24:38;25.40;92.90
25963;DHT22;13760;52.588;13.406;2023-07-13T09:27:15;25.50;92.20
25963;DHT22;13760;52.588;13.406;2023-07-13T09:29:50;25.60;91.20
25963;DHT22;13760;52.588;13.406;2023-07-13T09:32:18;25.60;90.80
25963;DHT22;13760;52.588;13.406;2023-07-13T09:34:53;25.70;91.20
25963;DHT22;13760;52.588;13.406;2023-07-13T09:37:21;25.70;90.30
25963;DHT22;13760;52.588;13.406;2023-07-13T09:39:49;25.80;89.80
25963;DHT22;13760;52.588;13.406;2023-07-13T09:42:19;25.80;90.70
25963;DHT22;13760;52.588;13.406;2023-07-13T09:44:57;26.00;88.60
25963;DHT22;13760;52.588;13.406;2023-07-13T09:47:28;26.00;88.10
25963;DHT22;13760;52.588;13.406;2023-07-13T09:50:04;26.00;84.70
25963;DHT22;13760;52.588;13.406;2023-07-13T09:52:43;26.00;86.70
25963;DHT22;13760;52.588;13.406;2023-07-13T09:55:38;26.00;86.30
25963;DHT22;13760;52.588;13.406;2023-07-13T09:58:22;26.10;86.50
25963;DHT22;13760;52.588;13.406;2023-07-13T10:01:01;26.30;86.90
25963;DHT22;13760;52.588;13.406;2023-07-13T10:03:33;26.20;83.60
25963;DHT22;13760;52.588;13.406;2023-07-13T10:06:17;26.30;84.30
25963;DHT22;13760;52.588;13.406;2023-07-13T10:08:44;26.50;81.80
25963;DHT22;13760;52.588;13.406;2023-07-13T10:11:14;26.50;82.30
25963;DHT22;13760;52.588;13.406;2023-07-13T10:14:00;26.60;81.70
25963;DHT22;13760;52.588;13.406;2023-07-13T10:16:31;26.60;79.50
25963;DHT22;13760;52.588;13.406;2023-07-13T10:19:00;26.40;82.00
25963;DHT22;13760;52.588;13.406;2023-07-13T10:21:32;26.00;80.20
25963;DHT22;13760;52.588;13.406;2023-07-13T10:24:11;25.80;78.90
25963;DHT22;13760;52.588;13.406;2023-07-13T10:26:41;25.50;80.00
25963;DHT22;13760;52.588;13.406;2023-07-13T10:29:11;25.60;80.90
25963;DHT22;13760;52.588;13.406;2023-07-13T10:31:44;25.60;79.80
25963;DHT22;13760;52.588;13.406;2023-07-13T10:34:11;25.60;76.40
25963;DHT22;13760;52.588;13.406;2023-07-13T10:36:44;25.40;77.00
25963;DHT22;13760;52.588;13.406;2023-07-13T10:39:17;25.40;79.80
25963;DHT22;13760;52.588;13.406;2023-07-13T10:41:44;25.50;84.20
25963;DHT22;13760;52.588;13.406;2023-07-13T10:44:20;25.70;84.80
25963;DHT22;13760;52.588;13.406;2023-07-13T10:46:47;25.90;83.70
25963;DHT22;13760;52.588;13.406;2023-07-13T10:49:14;26.00;83.20
25963;DHT22;13760;52.588;13.406;2023-07-13T10:51:39;26.20;78.60
25963;DHT22;13760;52.588;13.406;2023-07-13T10:54:26;26.30;78.80
25963;DHT22;13760;52.588;13.406;2023-07-13T10:57:15;26.40;79.30
25963;DHT22;13760;52.588;13.406;2023-07-13T10:59:47;26.30;78.70
25963;DHT22;13760;52.588;13.406;2023-07-13T11:02:25;26.10;78.00
25963;DHT22;13760;52.588;13.406;2023-07-13T11:04:53;26.20;78.80
25963;DHT22;13760;52.588;13.406;2023-07-13T11:07:30;26.30;75.70
25963;DHT22;13760;52.588;13.406;2023-07-13T11:10:05;26.20;75.20
25963;DHT22;13760;52.588;13.406;2023-07-13T11:12:52;26.20;75.10
25963;DHT22;13760;52.588;13.406;2023-07-13T11:15:38;26.30;73.80
25963;DHT22;13760;52.588;13.406;2023-07-13T11:18:20;26.40;73.80
25963;DHT22;13760;52.588;13.406;2023-07-13T11:20:48;26.40;71.10
25963;DHT22;13760;52.588;13.406;2023-07-13T11:25:42;26.60;71.90
25963;DHT22;13760;52.588;13.406;2023-07-13T11:30:47;26.70;69.10
25963;DHT22;13760;52.588;13.406;2023-07-13T11:33:20;26.80;67.20
25963;DHT22;13760;52.588;13.406;2023-07-13T11:36:00;26.90;67.70
25963;DHT22;13760;52.588;13.406;2023-07-13T11:38:37;27.00;66.70
25963;DHT22;13760;52.588;13.406;2023-07-13T11:41:15;26.90;66.20
25963;DHT22;13760;52.588;13.406;2023-07-13T11:43:41;26.80;66.50
25963;DHT22;13760;52.588;13.406;2023-07-13T11:46:24;26.80;66.80
25963;DHT22;13760;52.588;13.406;2023-07-13T11:48:52;27.00;66.70
25963;DHT22;13760;52.588;13.406;2023-07-13T11:51:32;27.00;67.10
25963;DHT22;13760;52.588;13.406;2023-07-13T11:54:03;27.20;66.30
25963;DHT22;13760;52.588;13.406;2023-07-13T11:56:29;27.30;64.50
25963;DHT22;13760;52.588;13.406;2023-07-13T11:58:56;27.30;64.60
25963;DHT22;13760;52.588;13.406;2023-07-13T12:01:25;27.40;66.40
25963;DHT22;13760;52.588;13.406;2023-07-13T12:03:52;27.50;63.40
25963;DHT22;13760;52.588;13.406;2023-07-13T12:06:33;27.50;62.90
25963;DHT22;13760;52.588;13.406;2023-07-13T12:09:01;27.60;63.00
25963;DHT22;13760;52.588;13.406;2023-07-13T12:11:29;27.50;61.60
25963;DHT22;13760;52.588;13.406;2023-07-13T12:13:55;27.50;61.80
25963;DHT22;13760;52.588;13.406;2023-07-13T12:16:30;27.50;60.40
25963;DHT22;13760;52.588;13.406;2023-07-13T12:18:59;27.40;59.90
25963;DHT22;13760;52.588;13.406;2023-07-13T12:21:41;27.40;59.70
25963;DHT22;13760;52.588;13.406;2023-07-13T12:24:15;27.40;61.30
25963;DHT22;13760;52.588;13.406;2023-07-13T12:26:41;27.30;61.90
25963;DHT22;13760;52.588;13.406;2023-07-13T12:29:07;27.30;59.70
25963;DHT22;13760;52.588;13.406;2023-07-13T12:31:34;27.30;61.10
25963;DHT22;13760;52.588;13.406;2023-07-13T12:34:11;27.10;60.70
25963;DHT22;13760;52.588;13.406;2023-07-13T12:36:54;27.20;62.00
25963;DHT22;13760;52.588;13.406;2023-07-13T12:39:46;27.30;61.30
25963;DHT22;13760;52.588;13.406;2023-07-13T12:42:27;27.30;62.60
25963;DHT22;13760;52.588;13.406;2023-07-13T12:45:00;27.40;61.80
25963;DHT22;13760;52.588;13.406;2023-07-13T12:47:27;27.30;59.70
25963;DHT22;13760;52.588;13.406;2023-07-13T12:49:59;27.40;61.90
25963;DHT22;13760;52.588;13.406;2023-07-13T12:52:33;27.50;61.40
25963;DHT22;13760;52.588;13.406;2023-07-13T12:55:06;27.60;59.80
25963;DHT22;13760;52.588;13.406;2023-07-13T12:57:40;27.40;57.90
25963;DHT22;13760;52.588;13.406;2023-07-13T13:02:45;27.20;59.40
25963;DHT22;13760;52.588;13.406;2023-07-13T13:05:13;27.10;60.10
25963;DHT22;13760;52.588;13.406;2023-07-13T13:07:39;27.10;59.10
25963;DHT22;13760;52.588;13.406;2023-07-13T13:10:12;27.00;58.90
25963;DHT22;13760;52.588;13.406;2023-07-13T13:12:37;26.90;59.90
25963;DHT22;13760;52.588;13.406;2023-07-13T13:15:03;26.90;60.20
25963;DHT22;13760;52.588;13.406;2023-07-13T13:17:32;26.80;60.10
25963;DHT22;13760;52.588;13.406;2023-07-13T13:19:58;26.70;59.20
25963;DHT22;13760;52.588;13.406;2023-07-13T13:22:23;26.80;60.30
25963;DHT22;13760;52.588;13.406;2023-07-13T13:24:49;26.90;61.30
25963;DHT22;13760;52.588;13.406;2023-07-13T13:27:20;26.90;61.20
25963;DHT22;13760;52.588;13.406;2023-07-13T13:29:46;26.80;61.80
25963;DHT22;13760;52.588;13.406;2023-07-13T13:32:15;26.80;61.30
25963;DHT22;13760;52.588;13.406;2023-07-13T13:34:41;26.90;61.70
25963;DHT22;13760;52.588;13.406;2023-07-13T13:37:23;26.80;61.00
25963;DHT22;13760;52.588;13.406;2023-07-13T13:39:50;27.00;62.30
25963;DHT22;13760;52.588;13.406;2023-07-13T13:42:17;27.20;62.10
25963;DHT22;13760;52.588;13.406;2023-07-13T13:44:43;27.30;59.90
25963;DHT22;13760;52.588;13.406;2023-07-13T13:47:28;27.40;59.50
25963;DHT22;13760;52.588;13.406;2023-07-13T13:49:54;27.40;59.50
25963;DHT22;13760;52.588;13.406;2023-07-13T13:52:20;27.50;60.60
25963;DHT22;13760;52.588;13.406;2023-07-13T13:54:46;27.40;59.90
25963;DHT22;13760;52.588;13.406;2023-07-13T13:57:11;27.20;60.70
25963;DHT22;13760;52.588;13.406;2023-07-13T13:59:38;27.20;60.20
25963;DHT22;13760;52.588;13.406;2023-07-13T14:02:25;27.30;60.70
25963;DHT22;13760;52.588;13.406;2023-07-13T14:04:56;27.20;60.20
25963;DHT22;13760;52.588;13.406;2023-07-13T14:07:22;27.30;61.50
25963;DHT22;13760;52.588;13.406;2023-07-13T14:09:47;27.60;59.40
25963;DHT22;13760;52.588;13.406;2023-07-13T14:12:13;27.70;59.60
25963;DHT22;13760;52.588;13.406;2023-07-13T14:14:39;27.80;58.50
25963;DHT22;13760;52.588;13.406;2023-07-13T14:17:18;28.00;58.10
25963;DHT22;13760;52.588;13.406;2023-07-13T14:19:47;28.20;59.10
25963;DHT22;13760;52.588;13.406;2023-07-13T14:22:16;28.20;57.10
25963;DHT22;13760;52.588;13.406;2023-07-13T14:24:42;28.20;58.60
25963;DHT22;13760;52.588;13.406;2023-07-13T14:27:12;28.20;57.50
25963;DHT22;13760;52.588;13.406;2023-07-13T14:29:38;28.10;57.60
25963;DHT22;13760;52.588;13.406;2023-07-13T14:32:04;27.90;56.70
25963;DHT22;13760;52.588;13.406;2023-07-13T14:34:31;27.70;57.80
25963;DHT22;13760;52.588;13.406;2023-07-13T14:36:56;27.60;58.00
25963;DHT22;13760;52.588;13.406;2023-07-13T14:39:24;27.40;57.70
25963;DHT22;13760;52.588;13.406;2023-07-13T14:41:57;27.30;58.70
25963;DHT22;13760;52.588;13.406;2023-07-13T14:44:28;27.00;58.10
25963;DHT22;13760;52.588;13.406;2023-07-13T14:46:55;26.80;59.80
25963;DHT22;13760;52.588;13.406;2023-07-13T14:52:13;26.70;60.40
25963;DHT22;13760;52.588;13.406;2023-07-13T14:54:40;26.70;58.10
25963;DHT22;13760;52.588;13.406;2023-07-13T14:57:19;26.60;56.50
25963;DHT22;13760;52.588;13.406;2023-07-13T14:59:45;26.60;57.90
25963;DHT22;13760;52.588;13.406;2023-07-13T15:02:30;26.50;58.20
25963;DHT22;13760;52.588;13.406;2023-07-13T15:04:57;26.50;56.20
25963;DHT22;13760;52.588;13.406;2023-07-13T15:07:24;26.40;57.40
25963;DHT22;13760;52.588;13.406;2023-07-13T15:09:50;26.30;55.90
25963;DHT22;13760;52.588;13.406;2023-07-13T15:12:19;26.10;56.70
25963;DHT22;13760;52.588;13.406;2023-07-13T15:14:45;26.10;57.00
25963;DHT22;13760;52.588;13.406;2023-07-13T15:19:55;26.10;57.60
25963;DHT22;13760;52.588;13.406;2023-07-13T15:22:21;26.10;58.90
25963;DHT22;13760;52.588;13.406;2023-07-13T15:24:47;26.00;58.40
25963;DHT22;13760;52.588;13.406;2023-07-13T15:27:12;26.00;59.10
25963;DHT22;13760;52.588;13.406;2023-07-13T15:29:38;26.00;58.50
25963;DHT22;13760;52.588;13.406;2023-07-13T15:32:12;26.00;59.00
25963;DHT22;13760;52.588;13.406;2023-07-13T15:34:38;25.90;59.40
25963;DHT22;13760;52.588;13.406;2023-07-13T15:37:08;26.00;59.50
25963;DHT22;13760;52.588;13.406;2023-07-13T15:39:37;25.90;58.70
25963;DHT22;13760;52.588;13.406;2023-07-13T15:42:03;25.90;59.10
25963;DHT22;13760;52.588;13.406;2023-07-13T15:44:30;25.90;59.70
25963;DHT22;13760;52.588;13.406;2023-07-13T15:46:56;25.70;60.00